Time;durP1;ratioP1;P1;durP2;ratioP2;P2;SDS_P1;SDS_P2;PMS_P1;PMS_P2;Temp;Humidity;BMP_temperature;BMP_pressure;BME280_temperature;BME280_humidity;BME280_pressure;Samples;Min_cycle;Max_cycle;Signal;HPM_P1;HPM_P2
2023/07/15 00:00:59;;;;;;;2.55;2.10;;;22.30;63.10;;;;;;5009014;28;20559;-35
2023/07/15 00:03:26;;;;;;;2.40;2.10;;;22.70;79.80;;;;;;5023409;28;20053;-32
2023/07/15 00:05:53;;;;;;;2.30;1.98;;;;;;;;;;5028326;28;20046;-35
2023/07/15 00:08:20;;;;;;;2.95;2.20;;;22.00;78.60;;;;;;5027221;28;20473;-32
2023/07/15 00:10:47;;;;;;;2.58;1.90;;;21.40;65.00;;;;;;5028370;28;20095;-34
2023/07/15 00:13:14;;;;;;;2.53;1.95;;;22.00;78.80;;;;;;5028291;28;20136;-37
2023/07/15 00:15:41;;;;;;;2.70;2.10;;;22.80;79.70;;;;;;5028426;28;20132;-41
2023/07/15 00:18:11;;;;;;;2.20;1.90;;;22.00;78.50;;;;;;5027209;28;20053;-39
2023/07/15 00:20:38;;;;;;;3.08;2.05;;;21.30;69.20;;;;;;5008953;28;20050;-39
2023/07/15 00:23:06;;;;;;;2.67;2.10;;;22.10;79.30;;;;;;5008406;28;20056;-40
2023/07/15 00:25:34;;;;;;;3.00;2.20;;;22.30;70.30;;;;;;5008417;28;20056;-37
2023/07/15 00:28:01;;;;;;;2.33;2.00;;;;;;;;;;5008341;28;20053;-40
2023/07/15 00:30:28;;;;;;;2.13;1.80;;;;;;;;;;5008403;28;20053;-35
2023/07/15 00:32:55;;;;;;;2.45;1.98;;;22.20;78.70;;;;;;5008446;28;20132;-39
2023/07/15 00:35:28;;;;;;;3.05;1.92;;;22.30;62.90;;;;;;5020539;28;20117;-38
2023/07/15 00:37:55;;;;;;;2.85;2.35;;;;;;;;;;5027699;28;20053;-38
2023/07/15 00:40:22;;;;;;;2.72;2.05;;;22.10;72.80;;;;;;5028003;28;20133;-39
2023/07/15 00:42:51;;;;;;;2.47;2.05;;;22.50;71.20;;;;;;5027845;28;20593;-37
2023/07/15 00:45:18;;;;;;;2.80;2.20;;;;;;;;;;5028014;28;20049;-35
2023/07/15 00:47:47;;;;;;;2.65;2.17;;;22.60;70.60;;;;;;5028042;28;20057;-36
2023/07/15 00:50:14;;;;;;;4.90;2.22;;;23.30;69.00;;;;;;5024448;28;20069;-39
2023/07/15 00:52:41;;;;;;;3.83;2.22;;;;;;;;;;5008210;28;20062;-38
2023/07/15 00:55:09;;;;;;;3.25;2.15;;;;;;;;;;5008188;28;20049;-40
2023/07/15 00:57:36;;;;;;;2.95;2.20;;;22.10;78.40;;;;;;5008398;28;20136;-39
2023/07/15 01:00:09;;;;;;;2.60;2.17;;;;;;;;;;5008134;28;20080;-36
2023/07/15 01:02:37;;;;;;;2.58;2.00;;;22.20;74.00;;;;;;5007850;28;20058;-37
2023/07/15 01:05:06;;;;;;;3.08;2.28;;;22.40;70.60;;;;;;5008059;28;20502;-38
2023/07/15 01:07:33;;;;;;;2.83;2.10;;;;;;;;;;5010978;28;20050;-35
2023/07/15 01:10:00;;;;;;;2.30;1.88;;;;;;;;;;5027661;28;20137;-39
2023/07/15 01:12:27;;;;;;;2.97;2.15;;;22.10;65.20;;;;;;5027558;28;20056;-38
2023/07/15 01:14:54;;;;;;;2.88;2.28;;;22.10;78.40;;;;;;5026992;28;20090;-37
2023/07/15 01:17:21;;;;;;;3.17;2.03;;;22.00;76.20;;;;;;5007968;28;20053;-38
2023/07/15 01:19:49;;;;;;;3.20;2.10;;;22.10;75.00;;;;;;5007926;28;20469;-37
2023/07/15 01:22:18;;;;;;;3.95;2.00;;;22.30;62.70;;;;;;5007899;28;20061;-40
2023/07/15 01:24:46;;;;;;;2.95;2.25;;;22.10;79.00;;;;;;5007912;28;20140;-39
2023/07/15 01:27:14;;;;;;;2.72;2.10;;;;;;;;;;5007661;28;20064;-39
2023/07/15 01:29:41;;;;;;;2.20;1.95;;;22.60;79.20;;;;;;5007804;28;20045;-40
2023/07/15 01:32:08;;;;;;;2.58;2.20;;;22.40;62.70;;;;;;5007808;28;20129;-37
2023/07/15 01:34:36;;;;;;;2.58;2.10;;;21.90;69.60;;;;;;5007734;28;20133;-36
2023/07/15 01:37:03;;;;;;;2.55;2.20;;;22.50;78.30;;;;;;5017493;28;20136;-38
2023/07/15 01:39:31;;;;;;;2.65;2.08;;;;;;;;;;5029345;28;20046;-33
2023/07/15 01:41:59;;;;;;;2.72;2.20;;;22.50;63.80;;;;;;5030845;28;20046;-38
2023/07/15 01:44:26;;;;;;;2.47;1.92;;;;;;;;;;5030510;28;20059;-36
2023/07/15 01:46:53;;;;;;;2.33;1.90;;;22.10;68.50;;;;;;5030667;28;20128;-39
2023/07/15 01:49:20;;;;;;;2.50;1.98;;;;;;;;;;5030076;28;20514;-39
2023/07/15 01:51:47;;;;;;;4.28;2.15;;;22.60;78.70;;;;;;5030498;28;20401;-38
2023/07/15 01:54:14;;;;;;;2.58;1.83;;;22.80;68.60;;;;;;5030388;28;20132;-38
2023/07/15 01:56:41;;;;;;;3.00;2.05;;;22.00;66.40;;;;;;5030730;28;20423;-36
2023/07/15 01:59:10;;;;;;;3.15;2.13;;;22.20;62.40;;;;;;5030535;28;20087;-39
2023/07/15 02:01:37;;;;;;;3.03;2.17;;;22.30;71.50;;;;;;5030793;28;20046;-38
2023/07/15 02:04:04;;;;;;;2.83;2.40;;;22.40;78.20;;;;;;5030394;28;20061;-37
2023/07/15 02:06:31;;;;;;;2.55;1.90;;;;;;;;;;5029472;28;20055;-37
2023/07/15 02:08:58;;;;;;;2.80;2.22;;;22.40;66.30;;;;;;5030352;28;20557;-38
2023/07/15 02:11:25;;;;;;;3.03;2.28;;;;;;;;;;5030333;28;20515;-34
2023/07/15 02:13:52;;;;;;;3.30;1.98;;;;;;;;;;5030207;28;20080;-37
2023/07/15 02:16:21;;;;;;;2.53;2.10;;;22.20;62.30;;;;;;5030367;28;20132;-36
2023/07/15 02:18:48;;;;;;;2.83;2.20;;;23.30;78.80;;;;;;5030486;28;20090;-39
2023/07/15 02:21:15;;;;;;;2.65;2.28;;;;;;;;;;5020136;28;20042;-34
2023/07/15 02:23:42;;;;;;;3.03;1.83;;;22.00;66.80;;;;;;5010285;28;20106;-38
2023/07/15 02:26:09;;;;;;;2.45;2.00;;;22.70;79.10;;;;;;5010279;28;20128;-40
2023/07/15 02:28:36;;;;;;;2.47;1.92;;;;;;;;;;5010401;28;20050;-34
2023/07/15 02:31:03;;;;;;;2.05;1.70;;;;;;;;;;5010480;28;20042;-37
2023/07/15 02:33:31;;;;;;;2.47;2.05;;;22.20;62.20;;;;;;5010303;28;20125;-37
2023/07/15 02:35:58;;;;;;;2.97;2.05;;;;;;;;;;5011033;28;20058;-38
2023/07/15 02:38:25;;;;;;;2.70;2.00;;;;;;;;;;5011422;28;20938;-37
2023/07/15 02:40:52;;;;;;;2.70;2.17;;;;;;;;;;5010207;28;20445;-34
2023/07/15 02:43:19;;;;;;;2.40;1.88;;;22.00;77.70;;;;;;5010011;28;20054;-37
2023/07/15 02:45:47;;;;;;;2.20;1.90;;;22.20;62.10;;;;;;5010474;28;20057;-37
2023/07/15 02:48:14;;;;;;;3.17;2.00;;;;;;;;;;5010164;28;20129;-34
2023/07/15 02:50:42;;;;;;;2.25;1.95;;;22.40;78.30;;;;;;5009468;28;20128;-39
2023/07/15 02:53:09;;;;;;;2.70;1.85;;;22.50;78.80;;;;;;5011116;28;20045;-39
2023/07/15 02:55:36;;;;;;;2.45;2.03;;;22.10;77.90;;;;;;5010161;28;20105;-40
2023/07/15 02:58:03;;;;;;;3.03;2.10;;;;;;;;;;5010293;28;20132;-36
2023/07/15 03:00:31;;;;;;;2.55;2.03;;;;;;;;;;5009962;28;20478;-39
2023/07/15 03:02:58;;;;;;;2.50;1.90;;;22.70;78.20;;;;;;5028975;28;20053;-40
2023/07/15 03:05:25;;;;;;;4.60;2.08;;;21.90;66.80;;;;;;5029304;28;20080;-38
2023/07/15 03:07:53;;;;;;;2.53;1.95;;;23.00;76.60;;;;;;5029194;28;20045;-38
2023/07/15 03:10:20;;;;;;;2.70;2.00;;;22.10;77.90;;;;;;5012284;28;20129;-39
2023/07/15 03:12:48;;;;;;;3.25;2.08;;;;;;;;;;5009881;28;20046;-34
2023/07/15 03:15:15;;;;;;;4.75;2.30;;;;;;;;;;5010214;28;20060;-37
2023/07/15 03:17:42;;;;;;;2.40;1.90;;;;;;;;;;5009663;28;20411;-37
2023/07/15 03:20:19;;;;;;;3.45;2.25;;;22.20;62.00;;;;;;5009560;28;20130;-36
2023/07/15 03:22:46;;;;;;;3.55;1.80;;;22.30;73.80;;;;;;5009665;28;20081;-39
2023/07/15 03:25:14;;;;;;;2.70;2.03;;;21.40;77.70;;;;;;5010743;28;20146;-39
2023/07/15 03:27:41;;;;;;;3.72;1.98;;;;;;;;;;5009774;28;20053;-37
2023/07/15 03:30:08;;;;;;;2.38;2.05;;;22.60;67.00;;;;;;5009623;28;20451;-39
2023/07/15 03:32:36;;;;;;;3.83;2.20;;;;;;;;;;5009157;28;20049;-35
2023/07/15 03:35:03;;;;;;;2.70;2.00;;;23.10;78.50;;;;;;5028165;28;20045;-36
2023/07/15 03:37:30;;;;;;;2.88;2.00;;;21.70;77.70;;;;;;5028325;28;20102;-40
2023/07/15 03:39:57;;;;;;;5.60;1.88;;;21.10;77.50;;;;;;5029139;28;20050;-37
2023/07/15 03:42:25;;;;;;;2.35;2.10;;;22.90;68.20;;;;;;5028421;28;20128;-38
2023/07/15 03:44:52;;;;;;;3.72;2.28;;;22.60;67.50;;;;;;5029065;28;20128;-37
2023/07/15 03:47:19;;;;;;;2.80;1.92;;;22.20;77.90;;;;;;5024566;28;20448;-40
2023/07/15 03:49:46;;;;;;;2.55;2.00;;;;;;;;;;5009383;28;20072;-35
2023/07/15 03:52:13;;;;;;;4.78;1.88;;;21.90;73.50;;;;;;5008972;28;20046;-37
2023/07/15 03:54:40;;;;;;;3.53;2.10;;;21.90;77.90;;;;;;5009273;28;20243;-37
2023/07/15 03:57:06;;;;;;;2.50;2.05;;;22.00;74.30;;;;;;5010735;28;20562;-38
2023/07/15 03:59:34;;;;;;;2.78;1.98;;;22.50;78.30;;;;;;5028999;28;20476;-39
2023/07/15 04:02:01;;;;;;;2.53;1.90;;;;;;;;;;5027854;28;20128;-35
2023/07/15 04:04:28;;;;;;;2.60;2.08;;;;;;;;;;5028351;28;20053;-37
2023/07/15 04:06:56;;;;;;;2.90;1.83;;;22.10;78.10;;;;;;5029014;28;20056;-39
2023/07/15 04:09:23;;;;;;;3.00;1.95;;;;;;;;;;5028805;28;20057;-37
2023/07/15 04:11:51;;;;;;;3.25;2.08;;;21.60;78.30;;;;;;5028008;28;20482;-39
2023/07/15 04:14:17;;;;;;;3.22;2.22;;;21.20;77.20;;;;;;5028465;28;20128;-38
2023/07/15 04:16:46;;;;;;;2.72;2.20;;;22.40;77.70;;;;;;5026104;28;20128;-35
2023/07/15 04:19:13;;;;;;;3.10;2.03;;;;;;;;;;5017562;28;20046;-35
2023/07/15 04:21:41;;;;;;;2.85;2.10;;;;;;;;;;5018062;28;20457;-36
2023/07/15 04:24:08;;;;;;;3.28;2.00;;;;;;;;;;5014429;28;20046;-34
2023/07/15 04:26:35;;;;;;;3.17;2.10;;;;;;;;;;5018456;28;20062;-36
2023/07/15 04:29:02;;;;;;;3.33;2.10;;;23.30;78.30;;;;;;5016863;28;20133;-36
2023/07/15 04:31:29;;;;;;;2.80;1.88;;;;;;;;;;5013979;28;20069;-34
2023/07/15 04:33:57;;;;;;;2.50;1.95;;;21.80;77.50;;;;;;5018325;28;20124;-37
2023/07/15 04:36:24;;;;;;;3.88;2.30;;;22.20;77.40;;;;;;5016185;28;20049;-38
2023/07/15 04:38:51;;;;;;;3.42;2.20;;;;;;;;;;5016911;28;20042;-36
2023/07/15 04:41:17;;;;;;;3.35;2.15;;;23.30;64.60;;;;;;5018469;28;20120;-35
2023/07/15 04:43:44;;;;;;;3.38;2.00;;;21.20;72.90;;;;;;5027051;28;20050;-41
2023/07/15 04:46:11;;;;;;;3.25;2.30;;;22.00;78.30;;;;;;5026400;28;20045;-38
2023/07/15 04:48:38;;;;;;;2.60;2.10;;;;;;;;;;5018667;28;20473;-36
2023/07/15 04:51:06;;;;;;;3.50;2.33;;;22.00;69.10;;;;;;5017085;28;20050;-38
2023/07/15 04:53:33;;;;;;;3.38;2.20;;;21.80;77.50;;;;;;5011841;28;20049;-39
2023/07/15 04:56:00;;;;;;;3.50;2.40;;;22.10;74.50;;;;;;5028050;28;20132;-40
2023/07/15 04:58:27;;;;;;;3.60;2.50;;;22.30;64.20;;;;;;5027777;28;20140;-36
2023/07/15 05:00:53;;;;;;;4.28;2.20;;;22.30;77.90;;;;;;5028152;28;20668;-40
2023/07/15 05:03:20;;;;;;;2.75;2.00;;;22.30;67.80;;;;;;5027941;28;20124;-38
2023/07/15 05:05:47;;;;;;;3.00;2.08;;;21.70;77.70;;;;;;5027567;28;20046;-38
2023/07/15 05:08:16;;;;;;;3.25;2.25;;;22.10;61.70;;;;;;5025397;28;20077;-37
2023/07/15 05:10:43;;;;;;;3.00;2.40;;;;;;;;;;5027220;28;20054;-38
2023/07/15 05:13:10;;;;;;;3.65;2.20;;;22.10;77.50;;;;;;5029354;28;20045;-39
2023/07/15 05:15:37;;;;;;;2.78;2.00;;;;;;;;;;5031550;28;20502;-38
2023/07/15 05:18:04;;;;;;;3.00;2.10;;;22.50;78.40;;;;;;5031795;28;20050;-36
2023/07/15 05:20:33;;;;;;;3.40;2.38;;;21.80;77.40;;;;;;5031099;28;20053;-35
2023/07/15 05:23:00;;;;;;;5.10;2.40;;;22.00;77.60;;;;;;5031078;28;20056;-37
2023/07/15 05:25:28;;;;;;;2.70;2.03;;;22.00;61.70;;;;;;5014431;28;20064;-35
2023/07/15 05:27:55;;;;;;;3.10;2.30;;;;;;;;;;5011414;28;20491;-35
2023/07/15 05:30:22;;;;;;;3.42;2.05;;;20.90;77.00;;;;;;5011445;28;20133;-39
2023/07/15 05:32:49;;;;;;;3.13;2.10;;;;;;;;;;5011527;28;20133;-35
2023/07/15 05:35:16;;;;;;;4.05;2.17;;;;;;;;;;5011685;28;20136;-35
2023/07/15 05:37:43;;;;;;;2.65;2.03;;;;;;;;;;5026343;28;20053;-37
2023/07/15 05:40:12;;;;;;;3.95;2.40;;;22.10;77.60;;;;;;5027544;28;20144;-36
2023/07/15 05:42:40;;;;;;;3.05;2.00;;;22.90;64.50;;;;;;5011311;28;20091;-36
2023/07/15 05:45:07;;;;;;;2.83;2.17;;;;;;;;;;5011314;28;20137;-34
2023/07/15 05:47:35;;;;;;;2.45;1.95;;;22.20;75.10;;;;;;5011436;28;20058;-37
2023/07/15 05:50:02;;;;;;;3.25;2.22;;;;;;;;;;5016383;28;20049;-34
2023/07/15 05:52:28;;;;;;;3.25;2.10;;;22.20;73.40;;;;;;5030598;28;20050;-34
2023/07/15 05:54:55;;;;;;;3.53;2.33;;;21.70;77.40;;;;;;5031073;28;20121;-39
2023/07/15 05:57:22;;;;;;;3.50;2.17;;;22.20;66.30;;;;;;5016794;28;20467;-36
2023/07/15 05:59:50;;;;;;;3.03;2.25;;;21.10;77.00;;;;;;5030219;28;20136;-36
2023/07/15 06:02:17;;;;;;;3.55;2.47;;;21.70;77.20;;;;;;5030255;28;20132;-37
2023/07/15 06:04:44;;;;;;;2.90;2.15;;;;;;;;;;5030770;28;20136;-34
2023/07/15 06:07:11;;;;;;;3.25;2.00;;;21.50;76.80;;;;;;5029845;28;20052;-36
2023/07/15 06:09:38;;;;;;;2.80;2.03;;;;;;;;;;5030327;28;20124;-34
2023/07/15 06:12:05;;;;;;;2.72;2.17;;;21.50;78.00;;;;;;5028420;28;20096;-38
2023/07/15 06:14:32;;;;;;;2.55;1.90;;;;;;;;;;5028461;28;20132;-36
2023/07/15 06:17:01;;;;;;;4.38;2.05;;;22.10;61.60;;;;;;5030749;28;20128;-34
2023/07/15 06:19:27;;;;;;;3.47;2.08;;;21.70;77.20;;;;;;5030777;28;20140;-37
2023/07/15 06:21:54;;;;;;;4.40;2.20;;;21.90;69.50;;;;;;5030390;28;20154;-39
2023/07/15 06:24:21;;;;;;;3.20;2.08;;;;;;;;;;5029375;28;20124;-33
2023/07/15 06:26:48;;;;;;;2.30;1.90;;;22.70;78.80;;;;;;5030435;28;20069;-37
2023/07/15 06:29:15;;;;;;;2.22;1.90;;;;;;;;;;5023954;28;20046;-38
2023/07/15 06:31:41;;;;;;;2.85;2.17;;;21.20;76.90;;;;;;5019688;28;20053;-38
2023/07/15 06:34:09;;;;;;;2.50;1.98;;;21.80;68.40;;;;;;5019060;28;20053;-37
2023/07/15 06:36:36;;;;;;;2.75;1.98;;;21.70;77.90;;;;;;5029863;28;20049;-37
2023/07/15 06:39:03;;;;;;;3.03;2.03;;;;;;;;;;5030054;28;20140;-37
2023/07/15 06:41:30;;;;;;;2.97;2.00;;;21.70;77.60;;;;;;5029924;28;20060;-37
2023/07/15 06:43:57;;;;;;;3.10;2.10;;;;;;;;;;5029845;28;20125;-36
2023/07/15 06:46:25;;;;;;;2.95;2.03;;;21.70;77.90;;;;;;5017362;28;20521;-39
2023/07/15 06:48:52;;;;;;;2.92;2.08;;;22.00;66.10;;;;;;5029726;28;20065;-38
2023/07/15 06:51:20;;;;;;;3.17;2.00;;;21.80;77.40;;;;;;5029930;28;20776;-40
2023/07/15 06:53:47;;;;;;;2.95;2.13;;;22.60;78.00;;;;;;5029636;28;20687;-40
2023/07/15 06:56:14;;;;;;;2.65;1.92;;;21.60;66.90;;;;;;5029911;28;20061;-38
2023/07/15 06:58:41;;;;;;;2.78;1.92;;;;;;;;;;5029804;28;20053;-37
2023/07/15 07:01:08;;;;;;;3.90;2.20;;;;;;;;;;5020140;28;20046;-36
2023/07/15 07:03:35;;;;;;;3.45;2.00;;;21.90;77.40;;;;;;5014714;28;20045;-39
2023/07/15 07:06:02;;;;;;;3.35;1.77;;;22.10;77.30;;;;;;5019554;28;20501;-39
2023/07/15 07:08:30;;;;;;;3.40;2.10;;;21.80;65.20;;;;;;5021003;28;20045;-38
2023/07/15 07:10:57;;;;;;;2.20;1.88;;;22.60;77.70;;;;;;5009566;28;20129;-41
2023/07/15 07:13:23;;;;;;;3.65;2.30;;;23.20;77.80;;;;;;5009351;28;20085;-40
2023/07/15 07:15:50;;;;;;;3.58;2.30;;;22.10;61.70;;;;;;5024780;28;20053;-35
2023/07/15 07:18:17;;;;;;;3.03;2.00;;;;;;;;;;5021171;28;20056;-38
2023/07/15 07:20:44;;;;;;;3.25;2.08;;;;;;;;;;5029242;28;20053;-36
2023/07/15 07:23:11;;;;;;;2.33;1.88;;;22.70;78.40;;;;;;5029071;28;20045;-40
2023/07/15 07:25:41;;;;;;;2.90;1.90;;;21.50;77.20;;;;;;5020588;28;20056;-39
2023/07/15 07:28:08;;;;;;;4.68;2.08;;;22.20;77.30;;;;;;5020660;28;20126;-40
2023/07/15 07:30:35;;;;;;;2.25;1.75;;;;;;;;;;5019626;28;20121;-37
2023/07/15 07:33:02;;;;;;;3.28;2.15;;;23.20;72.50;;;;;;5017574;28;20038;-36
2023/07/15 07:35:29;;;;;;;2.80;2.00;;;;;;;;;;5025819;28;20502;-36
2023/07/15 07:37:56;;;;;;;3.22;2.33;;;21.90;77.60;;;;;;5025739;28;20046;-39
2023/07/15 07:40:23;;;;;;;2.75;1.90;;;;;;;;;;5019300;28;20518;-36
2023/07/15 07:42:51;;;;;;;3.45;1.90;;;22.50;77.90;;;;;;5019196;28;20461;-40
2023/07/15 07:45:18;;;;;;;2.92;2.05;;;22.10;77.70;;;;;;5014574;28;20049;-39
2023/07/15 07:47:45;;;;;;;2.47;1.90;;;;;;;;;;5014701;28;20126;-38
2023/07/15 07:50:12;;;;;;;2.83;2.00;;;22.20;77.50;;;;;;5029102;28;20132;-37
2023/07/15 07:52:38;;;;;;;2.83;2.08;;;22.60;77.60;;;;;;5024715;28;20120;-41
2023/07/15 07:55:06;;;;;;;4.50;2.03;;;22.30;61.80;;;;;;5019058;28;20045;-38
2023/07/15 07:57:33;;;;;;;3.75;1.90;;;22.00;66.90;;;;;;5027446;28;20132;-37
2023/07/15 08:00:01;;;;;;;2.63;1.73;;;22.20;64.80;;;;;;5020837;28;20052;-36
2023/07/15 08:02:28;;;;;;;3.60;1.95;;;22.60;65.50;;;;;;5019413;28;20577;-37
2023/07/15 08:04:55;;;;;;;2.20;1.95;;;;;;;;;;5013747;28;20129;-36
2023/07/15 08:07:22;;;;;;;3.83;2.20;;;;;;;;;;5007558;28;20133;-39
2023/07/15 08:09:49;;;;;;;2.53;2.00;;;;;;;;;;5026971;28;20056;-37
2023/07/15 08:12:18;;;;;;;2.75;1.90;;;22.40;61.40;;;;;;5026215;28;20076;-36
2023/07/15 08:14:44;;;;;;;2.28;1.85;;;22.10;73.70;;;;;;5027054;28;20045;-38
2023/07/15 08:17:12;;;;;;;2.08;1.77;;;22.90;76.90;;;;;;5023435;28;20053;-40
2023/07/15 08:19:40;;;;;;;2.53;1.90;;;;;;;;;;5016574;28;20056;-36
2023/07/15 08:22:06;;;;;;;2.00;1.70;;;22.70;66.70;;;;;;5013375;28;20166;-38
2023/07/15 08:24:33;;;;;;;2.50;1.90;;;22.50;77.60;;;;;;5013745;28;20095;-40
2023/07/15 08:27:01;;;;;;;2.10;1.90;;;;;;;;;;5019566;28;20045;-36
2023/07/15 08:29:27;;;;;;;2.17;1.85;;;22.20;76.90;;;;;;5021807;28;20564;-38
2023/07/15 08:31:54;;;;;;;3.03;2.17;;;;;;;;;;5024627;28;20054;-38
2023/07/15 08:34:23;;;;;;;2.30;1.95;;;22.60;76.60;;;;;;5019170;28;20053;-37
2023/07/15 08:36:51;;;;;;;3.53;1.98;;;22.70;76.60;;;;;;5015365;28;20099;-40
2023/07/15 08:39:18;;;;;;;1.95;1.70;;;23.50;77.80;;;;;;5017742;28;20236;-40
2023/07/15 08:41:45;;;;;;;3.90;2.00;;;22.30;62.70;;;;;;5008081;28;20125;-40
2023/07/15 08:44:14;;;;;;;2.20;1.60;;;23.30;77.50;;;;;;5007839;28;20056;-39
2023/07/15 08:46:41;;;;;;;2.60;1.85;;;;;;;;;;5037507;27;20046;-36
2023/07/15 08:49:08;;;;;;;2.42;1.73;;;;;;;;;;5017233;28;20132;-38
2023/07/15 08:51:36;;;;;;;3.10;2.13;;;22.90;60.80;;;;;;5017445;28;20045;-37
2023/07/15 08:54:05;;;;;;;2.85;1.90;;;;;;;;;;5018656;28;20065;-34
2023/07/15 08:56:34;;;;;;;3.05;1.85;;;22.80;72.70;;;;;;5017798;28;20049;-39
2023/07/15 08:59:01;;;;;;;2.00;1.73;;;23.70;76.70;;;;;;5021577;28;20559;-40
2023/07/15 09:01:28;;;;;;;2.80;1.80;;;23.00;60.70;;;;;;5026960;28;20116;-38
2023/07/15 09:03:54;;;;;;;2.00;1.65;;;23.30;71.40;;;;;;5017428;28;20121;-37
2023/07/15 09:06:22;;;;;;;4.03;1.80;;;;;;;;;;5016796;28;20101;-37
2023/07/15 09:08:52;;;;;;;2.42;1.88;;;23.10;60.60;;;;;;5021964;28;20054;-36
2023/07/15 09:11:19;;;;;;;2.42;1.70;;;;;;;;;;5024458;28;20045;-39
2023/07/15 09:13:46;;;;;;;2.30;1.70;;;;;;;;;;5016819;28;20137;-37
2023/07/15 09:16:13;;;;;;;2.60;1.73;;;22.70;76.60;;;;;;5016618;28;20402;-40
2023/07/15 09:18:40;;;;;;;1.83;1.60;;;23.00;60.40;;;;;;5014797;28;20045;-38
2023/07/15 09:21:10;;;;;;;2.30;1.60;;;23.00;76.60;;;;;;5016492;28;20112;-41
2023/07/15 09:23:40;;;;;;;1.80;1.52;;;23.30;76.00;;;;;;5017962;28;20046;-39
2023/07/15 09:26:08;;;;;;;1.85;1.60;;;22.80;75.80;;;;;;5016051;28;20053;-38
2023/07/15 09:28:36;;;;;;;1.55;1.40;;;;;;;;;;5011491;28;20052;-38
2023/07/15 09:31:03;;;;;;;2.38;1.77;;;;;;;;;;5024440;28;20059;-36
2023/07/15 09:33:32;;;;;;;2.50;1.70;;;23.10;73.40;;;;;;5027006;28;20045;-39
2023/07/15 09:35:59;;;;;;;2.38;1.60;;;24.50;69.20;;;;;;5025926;28;20465;-38
2023/07/15 09:38:30;;;;;;;3.53;1.67;;;23.30;60.40;;;;;;5026697;28;20057;-40
2023/07/15 09:40:57;;;;;;;2.03;1.55;;;23.20;65.40;;;;;;5027623;28;20041;-37
2023/07/15 09:43:26;;;;;;;2.63;1.70;;;23.40;72.40;;;;;;5027005;28;20406;-39
2023/07/15 09:45:53;;;;;;;2.40;2.13;;;;;;;;;;5026889;28;20046;-38
2023/07/15 09:48:20;;;;;;;3.90;1.77;;;23.20;70.20;;;;;;5027574;28;20132;-39
2023/07/15 09:50:48;;;;;;;3.08;1.60;;;;;;;;;;5026160;28;20577;-36
2023/07/15 09:53:15;;;;;;;3.13;1.85;;;;;;;;;;5013354;28;20131;-34
2023/07/15 09:55:42;;;;;;;2.20;1.60;;;23.40;67.10;;;;;;5011441;28;20060;-39
2023/07/15 09:58:10;;;;;;;2.40;1.70;;;23.50;60.60;;;;;;5015359;28;20071;-40
2023/07/15 10:00:42;;;;;;;3.90;1.80;;;23.40;60.50;;;;;;5008460;28;20157;-38
2023/07/15 10:03:09;;;;;;;3.95;2.08;;;24.20;76.30;;;;;;5009462;28;20128;-40
2023/07/15 10:05:36;;;;;;;3.58;1.80;;;;;;;;;;5009949;28;20133;-37
2023/07/15 10:08:03;;;;;;;2.10;1.70;;;23.90;64.60;;;;;;5015710;28;20053;-37
2023/07/15 10:10:30;;;;;;;2.78;1.50;;;;;;;;;;5029369;28;20102;-36
2023/07/15 10:12:56;;;;;;;2.85;1.85;;;23.90;64.30;;;;;;5029167;28;20128;-39
2023/07/15 10:15:24;;;;;;;2.53;1.73;;;23.90;76.40;;;;;;5030306;28;20129;-38
2023/07/15 10:17:52;;;;;;;2.28;1.60;;;23.50;60.90;;;;;;5030526;28;20056;-40
2023/07/15 10:20:19;;;;;;;1.75;1.60;;;23.50;77.00;;;;;;5011597;28;20575;-40
2023/07/15 10:22:48;;;;;;;2.55;1.80;;;;;;;;;;5010552;28;20137;-34
2023/07/15 10:25:15;;;;;;;2.42;1.70;;;23.50;74.70;;;;;;5010628;28;20104;-37
2023/07/15 10:27:42;;;;;;;3.00;1.77;;;23.80;74.90;;;;;;5010748;28;20136;-38
2023/07/15 10:30:16;;;;;;;3.50;1.70;;;24.00;68.80;;;;;;5010621;28;20058;-36
2023/07/15 10:33:12;;;;;;;1.88;1.50;;;23.20;76.10;;;;;;5017442;28;20081;-39
2023/07/15 10:35:48;;;;;;;2.15;1.80;;;23.50;61.10;;;;;;5010535;28;20427;-39
2023/07/15 10:38:24;;;;;;;2.60;1.85;;;23.10;62.10;;;;;;5030177;28;20136;-36
2023/07/15 10:40:52;;;;;;;1.65;1.40;;;22.60;69.80;;;;;;5013703;28;20046;-38
2023/07/15 10:43:19;;;;;;;2.47;1.70;;;;;;;;;;5010099;28;20146;-37
2023/07/15 10:45:51;;;;;;;2.05;1.65;;;24.70;76.30;;;;;;5014473;28;20060;-40
2023/07/15 10:48:19;;;;;;;2.88;1.60;;;23.40;61.30;;;;;;5030008;28;20049;-39
2023/07/15 10:50:48;;;;;;;2.35;1.60;;;23.20;76.40;;;;;;5029742;28;20132;-40
2023/07/15 10:53:22;;;;;;;1.98;1.63;;;22.70;76.40;;;;;;5029687;28;20524;-40
2023/07/15 10:55:55;;;;;;;2.28;1.70;;;23.40;61.50;;;;;;5029947;28;20060;-39
2023/07/15 10:58:22;;;;;;;2.03;1.50;;;23.30;77.50;;;;;;5029817;28;20049;-39
2023/07/15 11:00:49;;;;;;;2.38;1.67;;;;;;;;;;5023043;28;20121;-36
2023/07/15 11:03:16;;;;;;;2.10;1.50;;;;;;;;;;5017971;28;20125;-38
2023/07/15 11:05:45;;;;;;;1.80;1.60;;;23.40;61.60;;;;;;5019476;28;20102;-35
2023/07/15 11:08:11;;;;;;;3.42;1.67;;;23.00;63.70;;;;;;5020815;28;20045;-37
2023/07/15 11:10:38;;;;;;;1.67;1.58;;;22.00;61.20;;;;;;5018229;28;20413;-36
2023/07/15 11:13:14;;;;;;;2.20;1.80;;;22.30;76.10;;;;;;5018563;28;20575;-39
2023/07/15 11:15:41;;;;;;;1.55;1.45;;;24.20;77.10;;;;;;5028446;27;20125;-40
2023/07/15 11:18:15;;;;;;;2.88;1.70;;;23.30;66.50;;;;;;5017465;28;20045;-39
2023/07/15 11:20:42;;;;;;;2.05;1.77;;;;;;;;;;5009676;28;20084;-36
2023/07/15 11:23:10;;;;;;;2.53;1.63;;;23.40;61.70;;;;;;5009138;28;20052;-38
2023/07/15 11:25:37;;;;;;;2.28;1.60;;;23.90;74.60;;;;;;5015062;28;20129;-36
2023/07/15 11:28:04;;;;;;;3.60;1.55;;;;;;;;;;5019886;28;20133;-35
2023/07/15 11:30:34;;;;;;;1.50;1.40;;;23.40;76.80;;;;;;5009196;28;20506;-40
2023/07/15 11:33:01;;;;;;;2.97;1.75;;;23.40;62.30;;;;;;5014940;28;20469;-37
2023/07/15 11:35:30;;;;;;;2.83;1.55;;;23.40;61.70;;;;;;5009271;28;20088;-39
2023/07/15 11:37:57;;;;;;;2.20;1.50;;;23.30;77.70;;;;;;5026268;28;20429;-41
2023/07/15 11:40:25;;;;;;;2.05;1.40;;;23.70;64.30;;;;;;5029149;28;20053;-36
2023/07/15 11:42:52;;;;;;;2.40;1.58;;;23.30;77.00;;;;;;5028977;28;20152;-40
2023/07/15 11:45:21;;;;;;;1.83;1.45;;;23.20;71.90;;;;;;5029059;28;20042;-38
2023/07/15 11:47:48;;;;;;;1.70;1.50;;;;;;;;;;5028408;28;20144;-37
2023/07/15 11:50:16;;;;;;;1.83;1.58;;;;;;;;;;5029147;28;20094;-39
2023/07/15 11:52:43;;;;;;;2.10;1.60;;;;;;;;;;5028484;28;20058;-36
2023/07/15 11:55:10;;;;;;;2.00;1.50;;;23.40;61.80;;;;;;5028917;28;20046;-37
2023/07/15 11:57:45;;;;;;;2.28;1.60;;;23.40;61.80;;;;;;5023068;28;20129;-34
2023/07/15 12:00:25;;;;;;;1.95;1.50;;;23.80;68.50;;;;;;5008758;28;20077;-41
2023/07/15 12:02:52;;;;;;;1.70;1.50;;;;;;;;;;5008744;28;20049;-40
2023/07/15 12:05:20;;;;;;;1.90;1.50;;;;;;;;;;5009112;28;20574;-36
2023/07/15 12:07:48;;;;;;;2.15;1.60;;;23.50;73.30;;;;;;5012632;28;20129;-40
2023/07/15 12:10:16;;;;;;;1.83;1.48;;;;;;;;;;5028676;28;20045;-37
2023/07/15 12:12:45;;;;;;;3.08;1.50;;;23.30;62.10;;;;;;5028001;28;20494;-38
2023/07/15 12:15:12;;;;;;;4.18;1.60;;;;;;;;;;5028024;28;20050;-39
2023/07/15 12:17:39;;;;;;;1.50;1.35;;;23.30;77.70;;;;;;5028608;28;20136;-40
2023/07/15 12:20:07;;;;;;;1.83;1.50;;;23.40;63.00;;;;;;5028219;28;20425;-38
2023/07/15 12:22:34;;;;;;;2.80;1.55;;;;;;;;;;5025692;28;20049;-37
2023/07/15 12:25:01;;;;;;;3.15;1.50;;;;;;;;;;5028224;28;20050;-39
2023/07/15 12:27:30;;;;;;;3.05;1.40;;;22.60;77.20;;;;;;5019752;28;20102;-31
2023/07/15 12:29:58;;;;;;;2.10;1.50;;;22.40;77.30;;;;;;5028460;28;20085;-31
2023/07/15 12:32:25;;;;;;;2.00;1.50;;;23.30;62.40;;;;;;5028381;28;20128;-31
2023/07/15 12:34:53;;;;;;;1.75;1.50;;;;;;;;;;5028344;28;20042;-35
2023/07/15 12:37:19;;;;;;;2.53;1.60;;;23.80;78.20;;;;;;5027376;28;20045;-32
2023/07/15 12:39:46;;;;;;;2.17;1.50;;;;;;;;;;5028174;28;20490;-34
2023/07/15 12:42:13;;;;;;;3.75;1.42;;;23.20;77.90;;;;;;5028322;28;20464;-31
2023/07/15 12:44:41;;;;;;;1.88;1.40;;;23.30;78.40;;;;;;5028156;28;20053;-32
2023/07/15 12:47:09;;;;;;;2.13;1.50;;;23.40;77.60;;;;;;5028291;28;20132;-32
2023/07/15 12:49:36;;;;;;;2.40;1.70;;;23.30;78.40;;;;;;5027731;28;20132;-33
2023/07/15 12:52:03;;;;;;;1.52;1.40;;;;;;;;;;5027793;28;20052;-36
2023/07/15 12:54:29;;;;;;;2.08;1.58;;;23.60;77.70;;;;;;5027912;28;20045;-31
2023/07/15 12:56:56;;;;;;;1.60;1.30;;;24.10;71.40;;;;;;5017779;28;20046;-31
2023/07/15 12:59:23;;;;;;;1.90;1.50;;;23.70;68.60;;;;;;5008467;28;20060;-35
2023/07/15 13:01:49;;;;;;;1.80;1.50;;;23.00;74.10;;;;;;5011536;28;20516;-31
2023/07/15 13:04:18;;;;;;;2.47;1.73;;;23.30;62.40;;;;;;5015232;28;20458;-33
2023/07/15 13:06:44;;;;;;;3.42;1.50;;;23.00;78.30;;;;;;5016436;28;20124;-31
2023/07/15 13:09:11;;;;;;;2.10;1.52;;;;;;;;;;5016394;28;20490;-33
2023/07/15 13:11:38;;;;;;;2.78;1.52;;;23.60;78.00;;;;;;5016202;28;20129;-31
2023/07/15 13:14:05;;;;;;;2.03;1.50;;;;;;;;;;5016313;28;20037;-33
2023/07/15 13:16:32;;;;;;;3.03;1.95;;;23.40;69.60;;;;;;5017687;28;20106;-32
2023/07/15 13:18:59;;;;;;;3.28;1.48;;;23.40;78.80;;;;;;5016762;28;20072;-31
2023/07/15 13:21:27;;;;;;;2.95;1.70;;;23.00;66.40;;;;;;5022941;28;20577;-32